Time;durP1;ratioP1;P1;durP2;ratioP2;P2;SDS_P1;SDS_P2;PMS_P1;PMS_P2;Temp;Humidity;BMP_temperature;BMP_pressure;BME280_temperature;BME280_humidity;BME280_pressure;Samples;Min_cycle;Max_cycle;Signal;HPM_P1;HPM_P2
2022/03/08 00:01:45;;;;;;;12.60;8.90;;;;;;;1.23;68.53;102476.22;5044128;28;20024;-57
2022/03/08 00:04:10;;;;;;;14.93;9.60;;;;;;;1.23;68.47;102480.53;5043016;28;20032;-55
2022/03/08 00:06:35;;;;;;;16.15;8.85;;;;;;;1.22;68.27;102483.97;5042215;28;20033;-56
2022/03/08 00:09:01;;;;;;;15.75;9.52;;;;;;;1.22;68.85;102473.56;5044568;28;20033;-56
2022/03/08 00:11:26;;;;;;;15.20;9.38;;;;;;;1.20;68.60;102470.06;5042921;28;20040;-55
2022/03/08 00:13:52;;;;;;;16.55;9.43;;;;;;;1.22;68.47;102470.97;5042247;28;20029;-55
2022/03/08 00:16:18;;;;;;;14.32;8.93;;;;;;;1.19;68.48;102460.50;5044466;28;20093;-55
2022/03/08 00:18:44;;;;;;;13.15;8.98;;;;;;;1.24;68.12;102465.00;5048332;28;20523;-57
2022/03/08 00:21:12;;;;;;;15.60;9.60;;;;;;;1.24;68.10;102461.53;5047881;28;20059;-58
2022/03/08 00:23:38;;;;;;;12.60;8.85;;;;;;;1.29;67.85;102464.28;5047401;28;20120;-58
2022/03/08 00:26:03;;;;;;;12.55;8.15;;;;;;;1.29;67.77;102459.09;5047102;28;20115;-56
2022/03/08 00:28:29;;;;;;;12.25;8.27;;;;;;;1.31;67.06;102460.88;5046815;28;20052;-57
2022/03/08 00:30:55;;;;;;;17.38;9.70;;;;;;;1.27;67.43;102456.44;5047201;28;20025;-55
2022/03/08 00:33:20;;;;;;;10.77;7.82;;;;;;;1.23;67.22;102455.44;5047882;28;20549;-59
2022/03/08 00:35:46;;;;;;;13.30;8.48;;;;;;;1.18;67.38;102456.13;5047046;28;20025;-56
2022/03/08 00:38:11;;;;;;;11.63;8.70;;;;;;;1.15;67.26;102445.66;5047935;28;20511;-56
2022/03/08 00:40:37;;;;;;;13.00;8.43;;;;;;;1.15;67.04;102446.53;5046992;28;20063;-58
2022/03/08 00:43:02;;;;;;;10.50;8.32;;;;;;;1.11;67.19;102450.75;5048050;28;20498;-60
2022/03/08 00:45:27;;;;;;;12.98;8.23;;;;;;;1.08;67.41;102457.56;5047275;28;20028;-57
2022/03/08 00:47:53;;;;;;;14.13;7.75;;;;;;;1.05;67.35;102455.75;5048173;28;20051;-58
2022/03/08 00:50:22;;;;;;;14.88;9.05;;;;;;;0.98;68.09;102452.06;5047546;28;20070;-63
2022/03/08 00:52:48;;;;;;;11.90;7.95;;;;;;;0.93;68.19;102456.22;5047071;28;20029;-61
2022/03/08 00:55:15;;;;;;;11.25;8.00;;;;;;;0.90;68.48;102450.94;5047554;28;20025;-57
2022/03/08 00:57:41;;;;;;;12.50;9.00;;;;;;;0.86;68.52;102444.78;5046055;28;20032;-57
2022/03/08 01:00:09;;;;;;;12.52;8.32;;;;;;;0.85;68.74;102437.81;5047282;28;20388;-59
2022/03/08 01:02:34;;;;;;;15.52;8.52;;;;;;;0.85;68.29;102437.81;5046826;28;20578;-56
2022/03/08 01:04:59;;;;;;;10.50;8.13;;;;;;;0.86;68.51;102438.69;5047402;28;20149;-58
2022/03/08 01:07:25;;;;;;;12.50;8.35;;;;;;;0.81;68.63;102435.09;5043887;28;20052;-57
2022/03/08 01:09:50;;;;;;;12.63;8.43;;;;;;;0.79;68.64;102435.03;5027295;28;20479;-56
2022/03/08 01:12:16;;;;;;;13.50;7.90;;;;;;;0.75;68.42;102436.63;5026326;28;20026;-58
2022/03/08 01:14:41;;;;;;;14.52;8.05;;;;;;;0.74;68.53;102433.97;5027420;28;20022;-55
2022/03/08 01:17:06;;;;;;;13.02;8.20;;;;;;;0.75;68.75;102435.75;5029779;28;20250;-61
2022/03/08 01:19:32;;;;;;;15.95;7.72;;;;;;;0.78;68.29;102422.88;5047362;28;20044;-58
2022/03/08 01:21:57;;;;;;;12.45;8.13;;;;;;;0.83;68.38;102430.81;5046099;28;20379;-54
2022/03/08 01:24:22;;;;;;;13.60;7.70;;;;;;;0.84;67.96;102424.81;5046678;28;20431;-58
2022/03/08 01:26:48;;;;;;;10.05;7.60;;;;;;;0.84;67.98;102424.81;5043867;28;20022;-57
2022/03/08 01:29:13;;;;;;;16.25;7.45;;;;;;;0.80;67.93;102425.50;5033638;28;20029;-57
2022/03/08 01:31:39;;;;;;;10.65;7.63;;;;;;;0.78;68.25;102422.00;5026213;28;20610;-56
2022/03/08 01:34:04;;;;;;;10.10;7.22;;;;;;;0.74;68.18;102421.00;5045475;28;20497;-57
2022/03/08 01:36:30;;;;;;;15.70;8.40;;;;;;;0.74;68.28;102418.41;5042622;28;20025;-57
2022/03/08 01:38:55;;;;;;;17.75;8.40;;;;;;;0.74;67.82;102419.31;5036814;28;20108;-55
2022/03/08 01:41:21;;;;;;;11.75;7.88;;;;;;;0.80;67.30;102417.72;5029914;28;20085;-56
2022/03/08 01:43:47;;;;;;;13.20;7.72;;;;;;;0.82;67.11;102416.06;5035184;28;20033;-58
2022/03/08 01:46:14;;;;;;;13.82;7.97;;;;;;;0.84;66.71;102411.81;5025776;28;20030;-57
2022/03/08 01:48:39;;;;;;;14.27;8.02;;;;;;;0.86;65.90;102412.75;5026346;28;20522;-58
2022/03/08 01:51:05;;;;;;;11.10;6.85;;;;;;;0.86;65.88;102408.44;5027007;28;20033;-58
2022/03/08 01:53:32;;;;;;;10.23;6.90;;;;;;;0.84;65.57;102409.22;5041226;28;20033;-57
2022/03/08 01:55:57;;;;;;;11.18;6.82;;;;;;;0.85;64.72;102390.22;5044961;28;20044;-56
2022/03/08 01:58:22;;;;;;;13.45;6.97;;;;;;;0.89;64.04;102384.28;5036683;28;20029;-56
2022/03/08 02:00:48;;;;;;;12.45;6.35;;;;;;;0.93;63.91;102382.69;5039273;28;20057;-57
2022/03/08 02:03:13;;;;;;;9.85;6.70;;;;;;;0.93;63.54;102378.34;5034041;28;20553;-57
2022/03/08 02:05:38;;;;;;;10.63;6.38;;;;;;;0.98;63.17;102382.00;5046182;28;20028;-55
2022/03/08 02:08:04;;;;;;;11.93;6.28;;;;;;;0.97;62.74;102388.00;5044885;28;20045;-58
2022/03/08 02:10:29;;;;;;;6.82;5.25;;;;;;;0.99;62.44;102385.44;5045912;28;20357;-55
2022/03/08 02:12:55;;;;;;;6.57;5.57;;;;;;;1.04;62.15;102377.81;5042488;28;20636;-58
2022/03/08 02:15:25;;;;;;;8.18;4.88;;;;;;;1.01;62.25;102376.00;5035423;28;20631;-57
2022/03/08 02:17:51;;;;;;;7.30;5.22;;;;;;;0.97;62.31;102367.22;5041874;28;20036;-56
2022/03/08 02:20:17;;;;;;;9.15;5.30;;;;;;;0.97;62.07;102363.78;5049874;28;20391;-56
2022/03/08 02:22:44;;;;;;;7.85;5.95;;;;;;;0.93;61.87;102362.78;5040765;28;20025;-57
2022/03/08 02:25:10;;;;;;;8.15;5.72;;;;;;;0.91;61.85;102359.28;5045290;28;20021;-58
2022/03/08 02:27:54;;;;;;;8.45;5.65;;;;;;;0.85;61.95;102357.34;5045780;28;20048;-55
2022/03/08 02:30:21;;;;;;;8.98;5.53;;;;;;;0.79;62.21;102348.50;5046336;28;20032;-57
2022/03/08 02:32:47;;;;;;;6.75;5.00;;;;;;;0.75;62.27;102353.59;5043903;28;20119;-57
2022/03/08 02:35:19;;;;;;;7.78;5.38;;;;;;;0.77;62.42;102345.84;5043818;28;20047;-56
2022/03/08 02:37:51;;;;;;;8.18;5.47;;;;;;;0.73;62.68;102350.06;5037646;28;20047;-57
2022/03/08 02:40:22;;;;;;;8.45;5.78;;;;;;;0.68;62.66;102350.75;5037111;28;20277;-56
2022/03/08 02:42:47;;;;;;;10.20;5.63;;;;;;;0.68;62.57;102345.56;5033042;28;20025;-56
2022/03/08 02:45:14;;;;;;;9.40;6.50;;;;;;;0.65;63.37;102346.34;5023700;28;20135;-56
2022/03/08 02:47:39;;;;;;;8.52;5.72;;;;;;;0.63;63.02;102345.41;5026096;28;20029;-57
2022/03/08 02:50:06;;;;;;;7.35;5.57;;;;;;;0.58;62.92;102339.22;5029996;28;20020;-55
2022/03/08 02:52:32;;;;;;;10.73;5.95;;;;;;;0.52;63.30;102339.00;5036673;28;20033;-56
2022/03/08 02:54:58;;;;;;;11.52;6.00;;;;;;;0.55;63.61;102333.91;5027784;28;20501;-56
2022/03/08 02:57:23;;;;;;;7.40;5.25;;;;;;;0.53;63.16;102330.38;5050238;28;20096;-58
2022/03/08 02:59:48;;;;;;;10.35;5.22;;;;;;;0.51;63.16;102327.75;5063917;28;20112;-57
2022/03/08 03:02:14;;;;;;;9.48;5.03;;;;;;;0.49;63.07;102321.63;5049622;28;20031;-56
2022/03/08 03:04:39;;;;;;;9.25;5.43;;;;;;;0.55;62.02;102320.94;5032582;28;20044;-55
2022/03/08 03:07:05;;;;;;;6.93;5.15;;;;;;;0.57;62.04;102316.72;5044230;28;20064;-56
2022/03/08 03:09:30;;;;;;;7.20;5.10;;;;;;;0.57;62.08;102316.72;5045007;28;20028;-56
2022/03/08 03:11:55;;;;;;;9.70;5.55;;;;;;;0.55;61.95;102318.34;5044235;28;20079;-57
2022/03/08 03:14:21;;;;;;;6.78;5.35;;;;;;;0.56;61.92;102318.41;5041309;28;20040;-56
2022/03/08 03:16:46;;;;;;;6.28;5.15;;;;;;;0.56;61.96;102314.91;5040604;28;20056;-57
2022/03/08 03:19:11;;;;;;;5.75;4.50;;;;;;;0.61;61.66;102313.38;5029870;28;20578;-56
2022/03/08 03:21:37;;;;;;;6.75;4.95;;;;;;;0.62;61.57;102309.94;5025098;28;20519;-56
2022/03/08 03:24:03;;;;;;;6.45;4.97;;;;;;;0.60;61.60;102302.09;5025452;28;20113;-55
2022/03/08 03:26:29;;;;;;;6.00;4.88;;;;;;;0.62;61.50;102294.38;5039940;28;20033;-60
2022/03/08 03:28:54;;;;;;;7.22;4.75;;;;;;;0.63;61.37;102290.94;5037522;28;20052;-57
2022/03/08 03:31:20;;;;;;;8.52;5.15;;;;;;;0.59;61.21;102297.75;5026598;28;20029;-56
2022/03/08 03:33:45;;;;;;;9.77;4.97;;;;;;;0.54;61.49;102290.66;5024963;28;20025;-56
2022/03/08 03:36:10;;;;;;;7.28;5.03;;;;;;;0.56;61.67;102295.06;5033268;28;20055;-56
2022/03/08 03:38:36;;;;;;;5.93;4.75;;;;;;;0.50;61.20;102295.75;5044624;28;20029;-61
2022/03/08 03:41:02;;;;;;;10.02;5.07;;;;;;;0.59;61.12;102283.88;5038461;28;20026;-56
2022/03/08 03:43:27;;;;;;;5.78;5.07;;;;;;;0.57;60.95;102285.56;5033609;28;20120;-57
2022/03/08 03:45:52;;;;;;;7.32;5.85;;;;;;;0.52;61.32;102287.13;5044171;28;20506;-56
2022/03/08 03:48:18;;;;;;;10.38;5.10;;;;;;;0.53;61.59;102291.47;5044501;28;20242;-56
2022/03/08 03:50:43;;;;;;;8.30;4.82;;;;;;;0.50;61.39;102294.88;5044384;28;20086;-58
2022/03/08 03:53:08;;;;;;;8.90;5.32;;;;;;;0.48;61.37;102292.22;5043400;28;20602;-59
2022/03/08 03:55:34;;;;;;;7.60;5.20;;;;;;;0.45;61.42;102291.25;5041444;28;20036;-55
2022/03/08 03:57:59;;;;;;;5.88;4.85;;;;;;;0.46;61.80;102293.00;5043265;28;20096;-58
2022/03/08 04:00:24;;;;;;;9.65;4.93;;;;;;;0.47;61.61;102289.56;5026556;28;20365;-55
2022/03/08 04:02:50;;;;;;;6.63;4.88;;;;;;;0.44;61.26;102287.78;5038219;28;20048;-56
2022/03/08 04:05:15;;;;;;;6.22;4.90;;;;;;;0.41;61.57;102295.44;5038821;28;20033;-56
2022/03/08 04:07:41;;;;;;;9.50;5.60;;;;;;;0.34;61.79;102294.38;5039831;28;20045;-58
2022/03/08 04:10:08;;;;;;;6.70;5.18;;;;;;;0.31;61.94;102296.00;5031812;28;20392;-62
2022/03/08 04:12:33;;;;;;;6.75;4.80;;;;;;;0.25;61.99;102288.91;5027502;28;20479;-56
2022/03/08 04:14:58;;;;;;;9.02;4.72;;;;;;;0.17;62.29;102292.94;5030244;28;20025;-56
2022/03/08 04:17:24;;;;;;;5.07;4.35;;;;;;;0.04;62.66;102294.25;5028291;28;20033;-58
2022/03/08 04:19:49;;;;;;;6.28;5.10;;;;;;;0.02;62.77;102294.19;5048371;28;20013;-55
2022/03/08 04:22:15;;;;;;;6.97;5.28;;;;;;;-0.04;63.27;102294.88;5047321;28;20025;-56
2022/03/08 04:24:40;;;;;;;8.55;5.13;;;;;;;-0.14;63.93;102288.50;5047649;28;20432;-56
2022/03/08 04:27:06;;;;;;;6.95;4.90;;;;;;;-0.16;64.33;102286.69;5047881;28;20108;-56
2022/03/08 04:29:32;;;;;;;6.43;5.20;;;;;;;-0.22;64.56;102292.53;5048086;28;20089;-55
2022/03/08 04:31:57;;;;;;;6.57;5.30;;;;;;;-0.31;64.49;102287.91;5047410;28;20480;-57
2022/03/08 04:34:23;;;;;;;7.80;5.25;;;;;;;-0.36;64.89;102281.69;5047539;28;20036;-57
2022/03/08 04:36:48;;;;;;;7.00;5.00;;;;;;;-0.33;65.00;102288.69;5045897;28;20107;-58
2022/03/08 04:39:14;;;;;;;8.73;5.45;;;;;;;-0.40;65.12;102295.34;5046728;28;20021;-55
2022/03/08 04:41:39;;;;;;;13.05;6.00;;;;;;;-0.47;65.40;102294.28;5047212;28;20025;-57
2022/03/08 04:44:04;;;;;;;11.52;5.88;;;;;;;-0.49;65.37;102290.75;5048032;28;20648;-58
2022/03/08 04:46:30;;;;;;;8.80;5.32;;;;;;;-0.54;65.56;102295.75;5046996;28;20062;-58
2022/03/08 04:48:55;;;;;;;11.82;5.28;;;;;;;-0.58;65.62;102293.88;5047688;28;20123;-56
2022/03/08 04:51:20;;;;;;;9.75;6.07;;;;;;;-0.61;65.94;102291.19;5046854;28;20029;-55
2022/03/08 04:53:46;;;;;;;10.93;6.00;;;;;;;-0.58;65.93;102291.28;5046739;28;20071;-55
2022/03/08 04:56:11;;;;;;;8.23;5.43;;;;;;;-0.55;65.95;102280.16;5046794;28;20494;-58
2022/03/08 04:58:37;;;;;;;12.57;6.20;;;;;;;-0.54;65.75;102282.81;5047683;28;20035;-57
2022/03/08 05:01:02;;;;;;;9.13;5.72;;;;;;;-0.52;65.85;102268.22;5047193;28;20467;-55
2022/03/08 05:03:27;;;;;;;12.27;5.78;;;;;;;-0.51;65.45;102264.78;5045846;28;20033;-59
2022/03/08 05:05:53;;;;;;;7.25;5.53;;;;;;;-0.56;65.53;102256.00;5053551;28;20522;-57
2022/03/08 05:08:18;;;;;;;8.95;6.22;;;;;;;-0.58;66.09;102260.22;5066034;28;20523;-58
2022/03/08 05:10:43;;;;;;;7.60;5.57;;;;;;;-0.58;66.49;102261.91;5066295;28;20608;-58
2022/03/08 05:13:09;;;;;;;10.07;6.45;;;;;;;-0.55;66.25;102262.91;5066990;28;20063;-57
2022/03/08 05:15:36;;;;;;;10.43;5.70;;;;;;;-0.55;66.22;102264.63;5067016;28;20024;-58
2022/03/08 05:18:01;;;;;;;7.70;5.85;;;;;;;-0.53;66.08;102266.47;5066979;28;20028;-56
2022/03/08 05:20:27;;;;;;;8.15;5.28;;;;;;;-0.51;66.05;102269.97;5061712;28;20395;-55
2022/03/08 05:22:52;;;;;;;10.18;6.28;;;;;;;-0.53;65.90;102266.47;5046855;28;20029;-58
2022/03/08 05:25:17;;;;;;;8.23;5.45;;;;;;;-0.54;65.94;102271.59;5046220;28;20565;-57
2022/03/08 05:27:43;;;;;;;6.50;4.60;;;;;;;-0.55;65.96;102262.03;5041481;28;20578;-57
2022/03/08 05:30:09;;;;;;;8.05;5.53;;;;;;;-0.57;66.11;102256.78;5044983;28;20456;-58
2022/03/08 05:32:34;;;;;;;9.02;5.97;;;;;;;-0.57;65.90;102256.78;5044361;28;20032;-57
2022/03/08 05:34:59;;;;;;;8.30;5.85;;;;;;;-0.55;66.02;102252.56;5045837;28;20005;-58
2022/03/08 05:37:25;;;;;;;8.68;5.50;;;;;;;-0.52;65.80;102252.69;5045544;28;20360;-63
2022/03/08 05:39:50;;;;;;;10.43;5.70;;;;;;;-0.49;65.35;102251.03;5046861;28;20027;-60
2022/03/08 05:42:16;;;;;;;10.93;5.68;;;;;;;-0.45;65.32;102252.91;5053779;28;20016;-59
2022/03/08 05:44:41;;;;;;;10.32;6.40;;;;;;;-0.45;65.60;102250.31;5063564;28;20048;-57
2022/03/08 05:47:07;;;;;;;10.52;5.50;;;;;;;-0.46;65.37;102238.16;5055602;28;20033;-56
2022/03/08 05:49:32;;;;;;;8.05;5.57;;;;;;;-0.45;65.36;102242.53;5046013;28;20024;-57
2022/03/08 05:51:57;;;;;;;9.65;5.43;;;;;;;-0.44;65.22;102240.00;5045809;28;20589;-58
2022/03/08 05:54:23;;;;;;;6.47;4.93;;;;;;;-0.42;65.14;102238.31;5046017;28;20032;-58
2022/03/08 05:56:48;;;;;;;8.45;5.60;;;;;;;-0.39;65.10;102242.75;5046502;28;20040;-56
2022/03/08 05:59:14;;;;;;;11.13;5.13;;;;;;;-0.39;64.70;102234.97;5045783;28;20032;-58
2022/03/08 06:01:40;;;;;;;9.10;5.80;;;;;;;-0.36;64.86;102236.78;5046549;28;20025;-58
2022/03/08 06:04:05;;;;;;;8.98;6.30;;;;;;;-0.32;64.65;102236.94;5045967;28;20041;-56
2022/03/08 06:06:30;;;;;;;7.35;5.55;;;;;;;-0.29;64.23;102229.28;5045505;28;20134;-57
2022/03/08 06:08:56;;;;;;;7.78;5.28;;;;;;;-0.28;64.26;102236.22;5045433;28;20028;-55
2022/03/08 06:11:21;;;;;;;9.25;6.40;;;;;;;-0.25;64.44;102230.25;5044598;28;20025;-57
2022/03/08 06:13:46;;;;;;;9.73;6.22;;;;;;;-0.24;64.36;102228.56;5044688;28;20097;-58
2022/03/08 06:16:13;;;;;;;11.55;5.90;;;;;;;-0.21;64.39;102228.66;5043847;28;20025;-53
2022/03/08 06:18:39;;;;;;;9.70;6.40;;;;;;;-0.22;64.34;102235.53;5045052;28;20009;-59
2022/03/08 06:21:04;;;;;;;10.98;6.50;;;;;;;-0.30;64.85;102235.28;5045642;28;20036;-60
2022/03/08 06:23:29;;;;;;;9.05;5.75;;;;;;;-0.26;64.34;102234.56;5044492;28;20048;-60
2022/03/08 06:25:55;;;;;;;10.27;6.05;;;;;;;-0.21;64.33;102239.03;5045079;28;20020;-57
2022/03/08 06:28:20;;;;;;;10.30;6.38;;;;;;;-0.16;64.44;102240.03;5042423;28;20033;-57
2022/03/08 06:30:46;;;;;;;8.68;4.93;;;;;;;-0.12;64.35;102239.31;5041608;28;20062;-57
2022/03/08 06:33:12;;;;;;;10.18;6.35;;;;;;;-0.09;64.22;102242.00;5044069;28;20025;-58
2022/03/08 06:35:38;;;;;;;8.27;6.03;;;;;;;-0.09;64.33;102243.72;5044710;28;20035;-61
2022/03/08 06:38:03;;;;;;;9.20;5.60;;;;;;;-0.11;64.04;102243.69;5045440;28;20017;-55
2022/03/08 06:40:28;;;;;;;10.80;5.63;;;;;;;-0.07;64.24;102252.41;5041840;28;20601;-57
2022/03/08 06:42:54;;;;;;;10.40;5.88;;;;;;;-0.08;63.61;102254.16;5036717;28;20048;-54
2022/03/08 06:45:19;;;;;;;7.35;5.40;;;;;;;-0.06;64.19;102260.25;5043794;28;20097;-58
2022/03/08 06:47:45;;;;;;;7.07;5.53;;;;;;;-0.03;63.78;102259.50;5045368;28;20058;-56
2022/03/08 06:50:10;;;;;;;8.50;5.50;;;;;;;0.08;63.92;102252.03;5043486;28;20041;-56
2022/03/08 06:52:36;;;;;;;9.65;5.70;;;;;;;0.08;63.66;102260.72;5043251;28;20032;-55
2022/03/08 06:55:02;;;;;;;6.72;5.20;;;;;;;0.13;63.60;102258.28;5032561;28;20069;-55
2022/03/08 06:57:27;;;;;;;8.20;6.10;;;;;;;0.16;63.51;102257.47;5039506;28;20501;-56
2022/03/08 06:59:52;;;;;;;7.20;5.38;;;;;;;0.24;63.31;102262.06;5024900;28;20026;-59
2022/03/08 07:02:18;;;;;;;8.07;5.75;;;;;;;0.28;63.10;102257.00;5041266;28;20443;-56
2022/03/08 07:04:43;;;;;;;5.97;5.18;;;;;;;0.30;62.91;102255.34;5037197;28;20039;-55
2022/03/08 07:07:08;;;;;;;8.55;5.82;;;;;;;0.31;63.02;102259.69;5023838;28;20554;-56
2022/03/08 07:09:34;;;;;;;10.82;5.60;;;;;;;0.39;62.55;102245.22;5039283;28;20383;-56
2022/03/08 07:12:00;;;;;;;9.15;5.78;;;;;;;0.44;62.65;102254.06;5045161;28;20017;-55
2022/03/08 07:14:25;;;;;;;6.18;5.57;;;;;;;0.47;62.69;102240.28;5039528;28;20391;-59
2022/03/08 07:16:50;;;;;;;7.00;5.80;;;;;;;0.49;62.87;102239.50;5032457;28;20049;-56
2022/03/08 07:19:17;;;;;;;9.80;5.82;;;;;;;0.58;62.36;102235.44;5044586;28;20539;-56
2022/03/08 07:21:45;;;;;;;7.40;5.60;;;;;;;0.61;62.19;102231.22;5044951;28;20039;-55
2022/03/08 07:24:11;;;;;;;9.13;5.95;;;;;;;0.68;61.59;102242.66;5043875;28;20032;-54
2022/03/08 07:26:36;;;;;;;11.02;6.13;;;;;;;0.75;61.21;102239.41;5046435;28;20369;-58
2022/03/08 07:29:02;;;;;;;9.00;5.82;;;;;;;0.84;60.83;102231.03;5047972;28;20107;-57
2022/03/08 07:31:27;;;;;;;8.13;5.97;;;;;;;0.94;60.81;102234.78;5054522;28;20040;-55
2022/03/08 07:33:52;;;;;;;10.05;5.72;;;;;;;1.04;60.45;102222.03;5055243;28;20040;-54
2022/03/08 07:36:18;;;;;;;7.88;5.80;;;;;;;1.10;59.93;102240.38;5053912;28;20081;-57
2022/03/08 07:38:43;;;;;;;8.15;5.45;;;;;;;1.12;59.59;102236.13;5055283;28;20029;-54
2022/03/08 07:41:09;;;;;;;7.95;5.60;;;;;;;1.25;59.58;102235.63;5056463;28;20017;-55
2022/03/08 07:43:34;;;;;;;12.55;5.90;;;;;;;1.27;59.25;102233.09;5058290;28;20085;-52
2022/03/08 07:46:01;;;;;;;9.55;5.57;;;;;;;1.36;58.93;102237.66;5057052;28;20024;-56
2022/03/08 07:48:26;;;;;;;9.40;5.78;;;;;;;1.47;58.87;102240.50;5057486;28;20032;-57
2022/03/08 07:50:52;;;;;;;17.05;6.07;;;;;;;1.46;59.22;102243.97;5054198;28;20021;-54
2022/03/08 07:53:17;;;;;;;7.65;5.80;;;;;;;1.53;58.63;102252.81;5053583;28;20387;-54
2022/03/08 07:55:42;;;;;;;8.43;5.82;;;;;;;1.55;58.77;102254.59;5055188;28;20494;-58
2022/03/08 07:58:13;;;;;;;6.72;5.40;;;;;;;1.63;58.82;102247.03;5027325;28;20391;-55
2022/03/08 08:00:39;;;;;;;10.38;6.00;;;;;;;1.66;58.66;102252.31;5026824;28;20085;-55
2022/03/08 08:03:04;;;;;;;8.65;6.10;;;;;;;1.64;58.16;102254.84;5035366;28;20519;-57
2022/03/08 08:05:29;;;;;;;10.73;5.93;;;;;;;1.77;58.24;102261.25;5043166;28;20033;-58
2022/03/08 08:07:55;;;;;;;7.65;5.75;;;;;;;1.86;57.61;102254.50;5049443;28;20047;-57
2022/03/08 08:10:20;;;;;;;8.52;5.90;;;;;;;1.96;57.31;102253.88;5037582;28;20021;-56
2022/03/08 08:12:46;;;;;;;8.35;5.10;;;;;;;2.02;57.29;102267.06;5027060;28;20034;-57
2022/03/08 08:15:11;;;;;;;6.75;5.68;;;;;;;2.17;57.65;102270.00;5026881;28;20037;-61
2022/03/08 08:17:36;;;;;;;11.13;5.55;;;;;;;2.26;56.78;102260.69;5027789;28;20026;-62
2022/03/08 08:20:03;;;;;;;7.18;5.82;;;;;;;2.27;56.26;102275.47;5041175;28;20032;-57
2022/03/08 08:22:28;;;;;;;7.80;6.10;;;;;;;2.29;55.98;102275.50;5041145;28;20037;-57
2022/03/08 08:24:53;;;;;;;9.45;5.72;;;;;;;2.32;56.19;102272.94;5037371;28;20025;-57
2022/03/08 08:27:19;;;;;;;7.57;5.72;;;;;;;2.33;55.97;102277.34;5052223;28;20108;-59
2022/03/08 08:29:45;;;;;;;7.28;5.28;;;;;;;2.43;55.75;102270.63;5047114;28;20108;-57
2022/03/08 08:32:10;;;;;;;7.15;5.30;;;;;;;2.47;55.47;102274.19;5047757;28;20058;-58
2022/03/08 08:34:36;;;;;;;8.20;6.03;;;;;;;2.55;55.58;102275.22;5047453;28;20032;-60
2022/03/08 08:37:01;;;;;;;9.07;6.07;;;;;;;2.61;55.69;102264.94;5045538;28;20095;-59
2022/03/08 08:39:26;;;;;;;12.13;5.47;;;;;;;2.57;55.12;102259.63;5035158;28;20041;-57
2022/03/08 08:41:52;;;;;;;10.80;6.05;;;;;;;2.62;54.92;102269.31;5028114;28;20519;-59
2022/03/08 08:44:19;;;;;;;10.20;5.15;;;;;;;2.82;54.83;102254.97;5051855;28;20487;-57
2022/03/08 08:46:44;;;;;;;9.18;5.97;;;;;;;2.83;54.48;102257.59;5056591;28;20055;-57
2022/03/08 08:49:10;;;;;;;8.77;5.32;;;;;;;2.85;54.55;102262.84;5055613;28;20108;-57
2022/03/08 08:51:35;;;;;;;10.82;5.72;;;;;;;2.94;54.23;102255.22;5056270;28;20277;-59
2022/03/08 08:54:00;;;;;;;8.20;5.80;;;;;;;2.99;54.68;102248.41;5053100;28;20056;-57
2022/03/08 08:56:26;;;;;;;7.68;4.82;;;;;;;2.99;54.04;102244.91;5053056;28;20066;-57
2022/03/08 08:58:51;;;;;;;7.75;5.47;;;;;;;3.02;53.89;102248.47;5053784;28;20511;-60
2022/03/08 09:01:17;;;;;;;9.98;5.97;;;;;;;3.06;53.68;102238.09;5054922;28;20028;-57
2022/03/08 09:03:42;;;;;;;9.25;5.75;;;;;;;3.16;53.85;102245.25;5056020;28;20044;-58
2022/03/08 09:06:07;;;;;;;7.88;5.25;;;;;;;3.19;53.44;102239.22;5050327;28;20482;-60
2022/03/08 09:08:33;;;;;;;7.60;6.10;;;;;;;3.14;52.71;102234.81;5054257;28;20060;-58
2022/03/08 09:10:58;;;;;;;6.95;5.15;;;;;;;3.26;52.64;102236.78;5056377;28;20021;-59
2022/03/08 09:13:24;;;;;;;8.50;5.85;;;;;;;3.28;52.78;102242.00;5056334;28;20029;-59
2022/03/08 09:15:50;;;;;;;7.43;4.90;;;;;;;3.50;53.14;102229.38;5054731;28;20615;-57
2022/03/08 09:18:16;;;;;;;6.53;5.22;;;;;;;3.62;53.09;102232.22;5047799;28;20060;-56
2022/03/08 09:20:41;;;;;;;7.13;5.35;;;;;;;3.65;52.46;102234.00;5047289;28;20024;-59
2022/03/08 09:23:07;;;;;;;6.95;5.20;;;;;;;3.73;51.82;102223.72;5045459;28;20025;-61
2022/03/08 09:25:33;;;;;;;6.20;5.45;;;;;;;3.81;51.83;102226.41;5046254;28;20483;-58
2022/03/08 09:27:59;;;;;;;16.60;6.32;;;;;;;3.86;52.08;102223.06;5038452;28;20021;-59
2022/03/08 09:30:24;;;;;;;7.07;5.43;;;;;;;3.91;51.82;102217.91;5035163;28;20598;-59
2022/03/08 09:32:50;;;;;;;9.65;5.47;;;;;;;4.04;51.15;102221.59;5030761;28;20026;-57
2022/03/08 09:35:16;;;;;;;8.38;5.00;;;;;;;3.86;50.49;102210.03;5037819;28;20163;-60
2022/03/08 09:37:41;;;;;;;7.57;5.38;;;;;;;3.89;50.23;102214.41;5045825;28;20021;-58
2022/03/08 09:40:07;;;;;;;10.63;5.45;;;;;;;3.97;50.81;102215.38;5045523;28;20039;-59
2022/03/08 09:42:32;;;;;;;8.30;5.60;;;;;;;4.20;49.98;102212.28;5044185;28;20104;-58
2022/03/08 09:44:58;;;;;;;6.07;5.07;;;;;;;4.33;50.04;102215.06;5041034;28;20053;-57
2022/03/08 09:47:23;;;;;;;27.15;7.45;;;;;;;4.43;49.69;102209.13;5040049;28;20018;-57
2022/03/08 09:49:49;;;;;;;8.60;5.30;;;;;;;4.48;49.11;102207.44;5043348;28;20020;-58
2022/03/08 09:52:15;;;;;;;10.50;5.65;;;;;;;4.53;48.34;102210.13;5045171;28;20040;-58
2022/03/08 09:54:44;;;;;;;9.27;4.97;;;;;;;4.54;47.88;102212.75;5043931;28;20017;-58
2022/03/08 09:57:11;;;;;;;15.55;4.90;;;;;;;4.62;48.10;102211.97;5045101;28;20021;-59
2022/03/08 09:59:36;;;;;;;7.22;4.95;;;;;;;4.73;47.44;102207.75;5044750;28;20013;-60
2022/03/08 10:02:02;;;;;;;9.75;4.97;;;;;;;4.76;47.59;102207.78;5039184;28;20573;-56
2022/03/08 10:04:28;;;;;;;9.30;5.22;;;;;;;4.74;47.77;102188.63;5039079;28;20033;-58
2022/03/08 10:06:53;;;;;;;9.07;5.13;;;;;;;4.83;47.88;102193.09;5043520;28;20048;-60
2022/03/08 10:09:20;;;;;;;7.43;4.93;;;;;;;4.95;47.77;102192.34;5044312;28;20029;-60
2022/03/08 10:11:50;;;;;;;8.02;5.10;;;;;;;4.98;46.95;102192.41;5040349;28;20029;-58
2022/03/08 10:14:36;;;;;;;8.25;5.00;;;;;;;4.99;46.78;102182.81;5024939;28;20386;-59
2022/03/08 10:17:01;;;;;;;7.50;5.03;;;;;;;5.05;46.87;102189.00;5028801;28;20037;-59
2022/03/08 10:19:27;;;;;;;6.28;5.03;;;;;;;5.00;46.21;102187.19;5037205;28;20094;-60
2022/03/08 10:21:54;;;;;;;7.20;5.40;;;;;;;5.17;46.52;102184.75;5023250;28;20021;-58
2022/03/08 10:24:25;;;;;;;10.18;4.95;;;;;;;5.10;46.44;102181.19;5022513;28;20028;-57
2022/03/08 10:27:06;;;;;;;5.35;4.32;;;;;;;5.12;46.61;102173.38;5022748;28;20471;-60
2022/03/08 10:29:37;;;;;;;6.05;4.72;;;;;;;5.32;46.68;102181.41;5019829;28;20480;-58
2022/03/08 10:32:10;;;;;;;6.40;5.13;;;;;;;5.47;46.56;102180.69;5025744;28;20024;-57
2022/03/08 10:34:37;;;;;;;6.68;4.43;;;;;;;5.66;46.20;102176.47;5024824;28;20045;-58
2022/03/08 10:37:13;;;;;;;8.57;4.95;;;;;;;5.79;46.49;102180.09;5024922;28;20029;-58
2022/03/08 10:39:55;;;;;;;9.82;4.82;;;;;;;5.86;45.53;102172.25;5025462;28;20389;-58
2022/03/08 10:42:22;;;;;;;6.53;4.80;;;;;;;5.92;45.07;102170.59;5025558;28;20055;-57
2022/03/08 10:44:48;;;;;;;7.05;4.65;;;;;;;6.02;43.92;102168.03;5023828;28;20140;-59
2022/03/08 10:47:14;;;;;;;9.77;5.25;;;;;;;6.03;44.39;102161.94;5025711;28;20465;-59
2022/03/08 10:49:54;;;;;;;5.00;4.47;;;;;;;5.97;44.33;102157.53;5020822;28;20037;-60
2022/03/08 10:52:28;;;;;;;9.27;5.18;;;;;;;6.12;44.73;102154.19;5012920;28;20028;-58
2022/03/08 10:54:54;;;;;;;9.32;5.00;;;;;;;6.15;44.35;102148.09;5025156;28;20123;-59
2022/03/08 10:57:19;;;;;;;15.48;5.00;;;;;;;6.14;44.50;102146.34;5025668;28;20120;-57
2022/03/08 10:59:55;;;;;;;6.85;4.68;;;;;;;6.42;44.15;102147.31;5025008;28;20070;-61
2022/03/08 11:02:23;;;;;;;5.45;4.70;;;;;;;6.62;44.33;102129.97;5008928;28;20048;-57
2022/03/08 11:05:07;;;;;;;7.50;4.30;;;;;;;6.74;42.64;102134.38;5035663;28;20368;-59
2022/03/08 11:07:33;;;;;;;5.72;4.22;;;;;;;6.73;41.91;102130.88;5038190;28;20040;-59
2022/03/08 11:09:58;;;;;;;7.88;4.65;;;;;;;6.75;42.05;102126.53;5024883;28;20087;-55
2022/03/08 11:12:24;;;;;;;5.88;4.82;;;;;;;6.82;42.37;102127.41;5023994;28;20022;-57
2022/03/08 11:14:49;;;;;;;6.22;4.60;;;;;;;6.79;41.83;102123.03;5023303;28;20033;-56
2022/03/08 11:17:16;;;;;;;6.60;4.68;;;;;;;6.94;41.54;102122.19;5033304;28;20450;-58
2022/03/08 11:19:42;;;;;;;10.05;4.53;;;;;;;7.04;41.70;102125.69;5043722;28;20044;-56
2022/03/08 11:22:08;;;;;;;32.58;4.72;;;;;;;7.35;42.55;102124.88;5029606;28;20048;-60
2022/03/08 11:24:35;;;;;;;6.75;4.80;;;;;;;7.51;41.14;102123.13;5045113;28;20041;-57